sensor_id;sensor_type;location;lat;lon;timestamp;temperature;humidity
7796;DHT22;3942;51.518;6.912;2022-08-14T00:00:53;24.50;99.90
7796;DHT22;3942;51.518;6.912;2022-08-14T00:05:57;24.50;99.90
7796;DHT22;3942;51.518;6.912;2022-08-14T00:11:00;24.50;99.90
7796;DHT22;3942;51.518;6.912;2022-08-14T00:16:02;24.40;99.90
7796;DHT22;3942;51.518;6.912;2022-08-14T00:21:05;24.30;99.90
7796;DHT22;3942;51.518;6.912;2022-08-14T00:26:08;24.30;99.90
7796;DHT22;3942;51.518;6.912;2022-08-14T00:31:10;24.20;99.90
7796;DHT22;3942;51.518;6.912;2022-08-14T00:36:14;24.10;99.90
7796;DHT22;3942;51.518;6.912;2022-08-14T00:41:17;24.20;99.90
7796;DHT22;3942;51.518;6.912;2022-08-14T00:46:19;24.20;99.90
7796;DHT22;3942;51.518;6.912;2022-08-14T00:51:21;24.20;99.90
7796;DHT22;3942;51.518;6.912;2022-08-14T00:56:24;24.10;99.90
7796;DHT22;3942;51.518;6.912;2022-08-14T01:01:26;24.20;99.90
7796;DHT22;3942;51.518;6.912;2022-08-14T01:06:29;24.20;99.90
7796;DHT22;3942;51.518;6.912;2022-08-14T01:11:37;24.20;99.90
7796;DHT22;3942;51.518;6.912;2022-08-14T01:16:39;24.20;99.90
7796;DHT22;3942;51.518;6.912;2022-08-14T01:21:42;24.20;99.90
7796;DHT22;3942;51.518;6.912;2022-08-14T01:26:46;24.20;99.90
7796;DHT22;3942;51.518;6.912;2022-08-14T01:31:48;24.20;99.90
7796;DHT22;3942;51.518;6.912;2022-08-14T01:36:53;24.10;99.90
7796;DHT22;3942;51.518;6.912;2022-08-14T01:41:55;23.90;99.90
7796;DHT22;3942;51.518;6.912;2022-08-14T01:47:03;23.90;99.90
7796;DHT22;3942;51.518;6.912;2022-08-14T01:52:11;23.90;99.90
7796;DHT22;3942;51.518;6.912;2022-08-14T01:57:13;23.70;99.90
7796;DHT22;3942;51.518;6.912;2022-08-14T02:02:15;23.60;99.90
7796;DHT22;3942;51.518;6.912;2022-08-14T02:07:18;23.30;99.90
7796;DHT22;3942;51.518;6.912;2022-08-14T02:12:20;23.20;99.90
7796;DHT22;3942;51.518;6.912;2022-08-14T02:17:24;23.10;99.90
7796;DHT22;3942;51.518;6.912;2022-08-14T02:22:27;23.00;99.90
7796;DHT22;3942;51.518;6.912;2022-08-14T02:27:29;23.00;99.90
7796;DHT22;3942;51.518;6.912;2022-08-14T02:32:31;23.00;99.90
7796;DHT22;3942;51.518;6.912;2022-08-14T02:37:36;23.00;99.90
7796;DHT22;3942;51.518;6.912;2022-08-14T02:42:39;23.00;99.90
7796;DHT22;3942;51.518;6.912;2022-08-14T02:47:41;23.00;99.90
7796;DHT22;3942;51.518;6.912;2022-08-14T02:52:44;22.90;99.90
7796;DHT22;3942;51.518;6.912;2022-08-14T02:57:48;22.90;99.90
7796;DHT22;3942;51.518;6.912;2022-08-14T03:02:51;22.70;99.90
7796;DHT22;3942;51.518;6.912;2022-08-14T03:08:03;22.70;99.90
7796;DHT22;3942;51.518;6.912;2022-08-14T03:13:05;22.70;99.90
7796;DHT22;3942;51.518;6.912;2022-08-14T03:18:10;22.60;99.90
7796;DHT22;3942;51.518;6.912;2022-08-14T03:23:13;22.50;99.90
7796;DHT22;3942;51.518;6.912;2022-08-14T03:28:15;22.50;99.90
7796;DHT22;3942;51.518;6.912;2022-08-14T03:33:17;22.40;99.90
7796;DHT22;3942;51.518;6.912;2022-08-14T03:38:20;22.30;99.90
7796;DHT22;3942;51.518;6.912;2022-08-14T03:43:22;22.10;99.90
7796;DHT22;3942;51.518;6.912;2022-08-14T03:48:24;21.90;99.90
7796;DHT22;3942;51.518;6.912;2022-08-14T03:53:27;21.90;99.90
7796;DHT22;3942;51.518;6.912;2022-08-14T03:58:30;21.90;99.90
7796;DHT22;3942;51.518;6.912;2022-08-14T04:03:32;21.90;99.90
7796;DHT22;3942;51.518;6.912;2022-08-14T04:08:35;21.90;99.90
7796;DHT22;3942;51.518;6.912;2022-08-14T04:13:40;21.90;99.90
7796;DHT22;3942;51.518;6.912;2022-08-14T04:18:44;21.90;99.90
7796;DHT22;3942;51.518;6.912;2022-08-14T04:23:48;21.80;99.90
7796;DHT22;3942;51.518;6.912;2022-08-14T04:28:50;21.80;99.90
7796;DHT22;3942;51.518;6.912;2022-08-14T04:33:52;21.80;99.90
7796;DHT22;3942;51.518;6.912;2022-08-14T04:38:56;21.90;99.90
7796;DHT22;3942;51.518;6.912;2022-08-14T04:44:15;22.10;99.90
7796;DHT22;3942;51.518;6.912;2022-08-14T04:49:17;22.10;99.90
7796;DHT22;3942;51.518;6.912;2022-08-14T04:54:20;22.10;99.90
7796;DHT22;3942;51.518;6.912;2022-08-14T04:59:23;22.00;99.90
7796;DHT22;3942;51.518;6.912;2022-08-14T05:04:25;22.10;99.90
7796;DHT22;3942;51.518;6.912;2022-08-14T05:09:28;22.30;99.90
7796;DHT22;3942;51.518;6.912;2022-08-14T05:14:30;22.50;99.90
7796;DHT22;3942;51.518;6.912;2022-08-14T05:19:32;22.60;99.90
7796;DHT22;3942;51.518;6.912;2022-08-14T05:24:35;22.60;99.90
7796;DHT22;3942;51.518;6.912;2022-08-14T05:29:37;22.80;99.90
7796;DHT22;3942;51.518;6.912;2022-08-14T05:34:40;22.80;99.90
7796;DHT22;3942;51.518;6.912;2022-08-14T05:39:43;22.90;99.90
7796;DHT22;3942;51.518;6.912;2022-08-14T05:44:46;23.00;99.90
7796;DHT22;3942;51.518;6.912;2022-08-14T05:49:47;23.10;99.90
7796;DHT22;3942;51.518;6.912;2022-08-14T05:54:51;23.10;99.90
7796;DHT22;3942;51.518;6.912;2022-08-14T05:59:52;23.40;99.90
7796;DHT22;3942;51.518;6.912;2022-08-14T06:04:54;23.60;99.90
7796;DHT22;3942;51.518;6.912;2022-08-14T06:09:58;23.80;99.90
7796;DHT22;3942;51.518;6.912;2022-08-14T06:15:00;23.80;99.90
7796;DHT22;3942;51.518;6.912;2022-08-14T06:20:02;24.20;99.90
7796;DHT22;3942;51.518;6.912;2022-08-14T06:25:07;24.50;99.90
7796;DHT22;3942;51.518;6.912;2022-08-14T06:30:11;24.80;99.90
7796;DHT22;3942;51.518;6.912;2022-08-14T06:35:14;24.40;99.90
7796;DHT22;3942;51.518;6.912;2022-08-14T06:40:21;24.70;99.90
7796;DHT22;3942;51.518;6.912;2022-08-14T06:45:23;24.50;99.90
7796;DHT22;3942;51.518;6.912;2022-08-14T06:50:25;25.40;99.90
7796;DHT22;3942;51.518;6.912;2022-08-14T06:55:29;25.70;99.90
7796;DHT22;3942;51.518;6.912;2022-08-14T07:00:31;25.40;99.90
7796;DHT22;3942;51.518;6.912;2022-08-14T07:05:33;25.80;99.90
7796;DHT22;3942;51.518;6.912;2022-08-14T07:10:51;26.30;99.90
7796;DHT22;3942;51.518;6.912;2022-08-14T07:15:54;26.50;99.90
7796;DHT22;3942;51.518;6.912;2022-08-14T07:20:58;26.90;99.90
7796;DHT22;3942;51.518;6.912;2022-08-14T07:26:02;27.30;99.90
7796;DHT22;3942;51.518;6.912;2022-08-14T07:31:05;26.80;99.90
7796;DHT22;3942;51.518;6.912;2022-08-14T07:36:10;26.80;99.90
7796;DHT22;3942;51.518;6.912;2022-08-14T07:41:13;27.40;99.90
7796;DHT22;3942;51.518;6.912;2022-08-14T07:46:15;27.70;99.90
7796;DHT22;3942;51.518;6.912;2022-08-14T07:51:18;27.80;99.90
7796;DHT22;3942;51.518;6.912;2022-08-14T07:56:21;27.80;99.90
7796;DHT22;3942;51.518;6.912;2022-08-14T08:01:24;27.90;99.90
7796;DHT22;3942;51.518;6.912;2022-08-14T08:06:30;27.80;99.90
7796;DHT22;3942;51.518;6.912;2022-08-14T08:11:35;27.20;99.90
7796;DHT22;3942;51.518;6.912;2022-08-14T08:16:39;27.60;99.90
7796;DHT22;3942;51.518;6.912;2022-08-14T08:21:43;27.40;99.90
7796;DHT22;3942;51.518;6.912;2022-08-14T08:26:47;27.80;99.90
7796;DHT22;3942;51.518;6.912;2022-08-14T08:31:50;27.80;99.90
7796;DHT22;3942;51.518;6.912;2022-08-14T08:36:52;28.80;99.90
7796;DHT22;3942;51.518;6.912;2022-08-14T08:41:55;28.80;99.90
7796;DHT22;3942;51.518;6.912;2022-08-14T08:46:57;29.10;99.90
7796;DHT22;3942;51.518;6.912;2022-08-14T08:52:01;29.10;99.90
7796;DHT22;3942;51.518;6.912;2022-08-14T08:57:11;29.70;99.90
7796;DHT22;3942;51.518;6.912;2022-08-14T09:02:15;29.80;99.90
7796;DHT22;3942;51.518;6.912;2022-08-14T09:07:24;30.20;99.90
7796;DHT22;3942;51.518;6.912;2022-08-14T09:12:28;29.70;99.90
7796;DHT22;3942;51.518;6.912;2022-08-14T09:17:31;30.10;99.90
7796;DHT22;3942;51.518;6.912;2022-08-14T09:22:34;30.40;99.90
7796;DHT22;3942;51.518;6.912;2022-08-14T09:27:37;30.60;99.00
7796;DHT22;3942;51.518;6.912;2022-08-14T09:32:58;31.00;98.10
7796;DHT22;3942;51.518;6.912;2022-08-14T09:38:08;32.20;96.40
7796;DHT22;3942;51.518;6.912;2022-08-14T09:43:25;32.50;93.20
7796;DHT22;3942;51.518;6.912;2022-08-14T09:48:29;32.60;92.50
7796;DHT22;3942;51.518;6.912;2022-08-14T09:53:37;32.80;91.90
7796;DHT22;3942;51.518;6.912;2022-08-14T09:58:43;32.30;92.90
7796;DHT22;3942;51.518;6.912;2022-08-14T10:03:47;32.50;90.90
7796;DHT22;3942;51.518;6.912;2022-08-14T10:08:56;32.60;90.70
7796;DHT22;3942;51.518;6.912;2022-08-14T10:14:11;32.50;90.40
7796;DHT22;3942;51.518;6.912;2022-08-14T10:19:17;32.00;90.70
7796;DHT22;3942;51.518;6.912;2022-08-14T10:24:23;31.60;90.40
7796;DHT22;3942;51.518;6.912;2022-08-14T10:29:34;31.30;92.30
7796;DHT22;3942;51.518;6.912;2022-08-14T10:34:38;31.20;91.20
7796;DHT22;3942;51.518;6.912;2022-08-14T10:39:42;30.80;92.20
7796;DHT22;3942;51.518;6.912;2022-08-14T10:44:46;30.60;91.70
7796;DHT22;3942;51.518;6.912;2022-08-14T10:49:56;30.20;91.90
7796;DHT22;3942;51.518;6.912;2022-08-14T10:55:06;29.60;92.40
7796;DHT22;3942;51.518;6.912;2022-08-14T11:00:14;29.70;92.80
7796;DHT22;3942;51.518;6.912;2022-08-14T11:05:17;29.60;92.70
7796;DHT22;3942;51.518;6.912;2022-08-14T11:10:21;29.80;92.60
7796;DHT22;3942;51.518;6.912;2022-08-14T11:15:27;29.80;92.10
7796;DHT22;3942;51.518;6.912;2022-08-14T11:20:30;30.00;93.10
7796;DHT22;3942;51.518;6.912;2022-08-14T11:25:32;30.10;92.40
7796;DHT22;3942;51.518;6.912;2022-08-14T11:30:37;29.90;92.20
7796;DHT22;3942;51.518;6.912;2022-08-14T11:35:40;29.60;92.80
7796;DHT22;3942;51.518;6.912;2022-08-14T11:40:43;29.60;91.80
7796;DHT22;3942;51.518;6.912;2022-08-14T11:45:47;29.60;91.80
7796;DHT22;3942;51.518;6.912;2022-08-14T11:50:51;29.90;92.00
7796;DHT22;3942;51.518;6.912;2022-08-14T11:55:55;29.90;91.30
7796;DHT22;3942;51.518;6.912;2022-08-14T12:01:00;29.70;91.50
7796;DHT22;3942;51.518;6.912;2022-08-14T12:06:05;29.90;91.70
7796;DHT22;3942;51.518;6.912;2022-08-14T12:11:10;29.70;92.10
7796;DHT22;3942;51.518;6.912;2022-08-14T12:16:15;29.90;92.20
7796;DHT22;3942;51.518;6.912;2022-08-14T12:21:18;29.90;92.10
7796;DHT22;3942;51.518;6.912;2022-08-14T12:26:22;30.10;92.10
7796;DHT22;3942;51.518;6.912;2022-08-14T12:31:25;29.90;92.20
7796;DHT22;3942;51.518;6.912;2022-08-14T12:36:27;29.90;92.80
7796;DHT22;3942;51.518;6.912;2022-08-14T12:41:31;30.00;92.50
7796;DHT22;3942;51.518;6.912;2022-08-14T12:46:38;30.20;92.30
7796;DHT22;3942;51.518;6.912;2022-08-14T12:51:41;30.20;92.40
7796;DHT22;3942;51.518;6.912;2022-08-14T12:56:44;30.30;92.20
7796;DHT22;3942;51.518;6.912;2022-08-14T13:01:55;30.40;92.00
7796;DHT22;3942;51.518;6.912;2022-08-14T13:07:00;30.60;92.10
7796;DHT22;3942;51.518;6.912;2022-08-14T13:12:08;30.70;91.70
7796;DHT22;3942;51.518;6.912;2022-08-14T13:17:13;30.50;91.60
7796;DHT22;3942;51.518;6.912;2022-08-14T13:22:17;30.40;91.90
7796;DHT22;3942;51.518;6.912;2022-08-14T13:27:22;30.40;91.70
7796;DHT22;3942;51.518;6.912;2022-08-14T13:32:25;30.10;91.60
7796;DHT22;3942;51.518;6.912;2022-08-14T13:37:28;30.30;91.80
7796;DHT22;3942;51.518;6.912;2022-08-14T13:42:31;30.30;91.50
7796;DHT22;3942;51.518;6.912;2022-08-14T13:47:34;30.50;91.50
7796;DHT22;3942;51.518;6.912;2022-08-14T13:52:39;30.70;91.10
7796;DHT22;3942;51.518;6.912;2022-08-14T13:57:42;30.70;90.90
7796;DHT22;3942;51.518;6.912;2022-08-14T14:02:46;30.80;90.80
7796;DHT22;3942;51.518;6.912;2022-08-14T14:07:49;30.80;91.00
7796;DHT22;3942;51.518;6.912;2022-08-14T14:12:52;30.70;90.70
7796;DHT22;3942;51.518;6.912;2022-08-14T14:17:55;30.50;90.40
7796;DHT22;3942;51.518;6.912;2022-08-14T14:22:57;30.50;90.90
7796;DHT22;3942;51.518;6.912;2022-08-14T14:27:59;30.30;91.00
7796;DHT22;3942;51.518;6.912;2022-08-14T14:33:05;30.40;90.90
7796;DHT22;3942;51.518;6.912;2022-08-14T14:38:12;30.40;90.90
7796;DHT22;3942;51.518;6.912;2022-08-14T14:43:14;30.40;91.20
7796;DHT22;3942;51.518;6.912;2022-08-14T14:48:18;30.40;91.00
7796;DHT22;3942;51.518;6.912;2022-08-14T14:53:20;30.40;90.60
7796;DHT22;3942;51.518;6.912;2022-08-14T14:58:22;30.70;90.10
7796;DHT22;3942;51.518;6.912;2022-08-14T15:03:25;30.80;88.60
7796;DHT22;3942;51.518;6.912;2022-08-14T15:08:28;30.70;88.40
7796;DHT22;3942;51.518;6.912;2022-08-14T15:13:31;30.70;88.90
7796;DHT22;3942;51.518;6.912;2022-08-14T15:18:35;30.70;87.90
7796;DHT22;3942;51.518;6.912;2022-08-14T15:23:37;30.80;88.90
7796;DHT22;3942;51.518;6.912;2022-08-14T15:28:40;30.80;88.70
7796;DHT22;3942;51.518;6.912;2022-08-14T15:33:44;30.90;89.10
7796;DHT22;3942;51.518;6.912;2022-08-14T15:39:03;30.80;89.90
7796;DHT22;3942;51.518;6.912;2022-08-14T15:44:05;30.60;89.30
7796;DHT22;3942;51.518;6.912;2022-08-14T15:49:09;30.70;89.60
7796;DHT22;3942;51.518;6.912;2022-08-14T15:54:12;30.80;89.30
7796;DHT22;3942;51.518;6.912;2022-08-14T15:59:13;30.80;90.20
7796;DHT22;3942;51.518;6.912;2022-08-14T16:04:17;30.80;90.30
7796;DHT22;3942;51.518;6.912;2022-08-14T16:09:23;30.80;90.30
7796;DHT22;3942;51.518;6.912;2022-08-14T16:14:25;30.60;89.50
7796;DHT22;3942;51.518;6.912;2022-08-14T16:19:29;30.80;90.20
7796;DHT22;3942;51.518;6.912;2022-08-14T16:24:33;30.80;90.10
7796;DHT22;3942;51.518;6.912;2022-08-14T16:29:38;30.80;90.00
7796;DHT22;3942;51.518;6.912;2022-08-14T16:34:41;30.80;90.20
7796;DHT22;3942;51.518;6.912;2022-08-14T16:39:45;30.90;90.80
7796;DHT22;3942;51.518;6.912;2022-08-14T16:44:48;30.70;88.10
7796;DHT22;3942;51.518;6.912;2022-08-14T16:49:52;30.50;88.80
7796;DHT22;3942;51.518;6.912;2022-08-14T16:54:56;30.70;87.80
7796;DHT22;3942;51.518;6.912;2022-08-14T16:59:58;30.60;87.40
7796;DHT22;3942;51.518;6.912;2022-08-14T17:05:17;30.50;87.60
7796;DHT22;3942;51.518;6.912;2022-08-14T17:10:20;30.50;87.50
7796;DHT22;3942;51.518;6.912;2022-08-14T17:15:22;30.60;88.70
7796;DHT22;3942;51.518;6.912;2022-08-14T17:20:25;30.50;89.70
7796;DHT22;3942;51.518;6.912;2022-08-14T17:25:29;30.50;90.20
7796;DHT22;3942;51.518;6.912;2022-08-14T17:30:47;30.50;90.60
7796;DHT22;3942;51.518;6.912;2022-08-14T17:36:07;30.50;90.80
7796;DHT22;3942;51.518;6.912;2022-08-14T17:41:17;30.50;90.80
7796;DHT22;3942;51.518;6.912;2022-08-14T17:46:33;30.40;91.00
7796;DHT22;3942;51.518;6.912;2022-08-14T17:51:53;30.40;91.30
7796;DHT22;3942;51.518;6.912;2022-08-14T17:57:00;30.40;91.30
7796;DHT22;3942;51.518;6.912;2022-08-14T18:02:04;30.40;91.20
7796;DHT22;3942;51.518;6.912;2022-08-14T18:07:09;30.40;91.20
7796;DHT22;3942;51.518;6.912;2022-08-14T18:12:11;30.00;92.00
7796;DHT22;3942;51.518;6.912;2022-08-14T18:17:14;28.70;95.90
7796;DHT22;3942;51.518;6.912;2022-08-14T18:22:19;27.90;98.60
7796;DHT22;3942;51.518;6.912;2022-08-14T18:27:30;27.30;99.90
7796;DHT22;3942;51.518;6.912;2022-08-14T18:32:41;27.30;99.90
7796;DHT22;3942;51.518;6.912;2022-08-14T18:37:46;27.50;99.90
7796;DHT22;3942;51.518;6.912;2022-08-14T18:42:49;27.80;99.90
7796;DHT22;3942;51.518;6.912;2022-08-14T18:48:23;28.00;99.90
7796;DHT22;3942;51.518;6.912;2022-08-14T18:53:29;28.10;99.90
7796;DHT22;3942;51.518;6.912;2022-08-14T18:58:46;28.10;99.90
7796;DHT22;3942;51.518;6.912;2022-08-14T19:03:48;28.10;99.90
7796;DHT22;3942;51.518;6.912;2022-08-14T19:08:51;28.20;99.90
7796;DHT22;3942;51.518;6.912;2022-08-14T19:13:54;28.10;99.90
7796;DHT22;3942;51.518;6.912;2022-08-14T19:18:57;28.20;99.90
7796;DHT22;3942;51.518;6.912;2022-08-14T19:24:06;28.20;99.90
7796;DHT22;3942;51.518;6.912;2022-08-14T19:29:23;28.20;99.90
7796;DHT22;3942;51.518;6.912;2022-08-14T19:34:37;28.20;99.90
7796;DHT22;3942;51.518;6.912;2022-08-14T19:39:46;28.20;99.80
7796;DHT22;3942;51.518;6.912;2022-08-14T19:44:49;28.20;99.90
7796;DHT22;3942;51.518;6.912;2022-08-14T19:49:51;28.10;99.90
7796;DHT22;3942;51.518;6.912;2022-08-14T19:54:54;28.10;99.60
7796;DHT22;3942;51.518;6.912;2022-08-14T20:00:01;28.10;99.80
7796;DHT22;3942;51.518;6.912;2022-08-14T20:05:06;28.10;99.50
7796;DHT22;3942;51.518;6.912;2022-08-14T20:10:24;28.10;99.90
7796;DHT22;3942;51.518;6.912;2022-08-14T20:15:29;28.10;99.90
7796;DHT22;3942;51.518;6.912;2022-08-14T20:20:34;28.10;99.90
7796;DHT22;3942;51.518;6.912;2022-08-14T20:25:40;28.10;99.90
7796;DHT22;3942;51.518;6.912;2022-08-14T20:30:43;28.10;99.90
7796;DHT22;3942;51.518;6.912;2022-08-14T20:35:48;27.90;99.90
7796;DHT22;3942;51.518;6.912;2022-08-14T20:40:54;27.80;99.90
7796;DHT22;3942;51.518;6.912;2022-08-14T20:45:56;27.80;99.90
7796;DHT22;3942;51.518;6.912;2022-08-14T20:51:17;27.70;99.90
7796;DHT22;3942;51.518;6.912;2022-08-14T20:56:21;27.70;99.90
7796;DHT22;3942;51.518;6.912;2022-08-14T21:01:33;27.60;99.90
7796;DHT22;3942;51.518;6.912;2022-08-14T21:06:37;27.40;99.90
7796;DHT22;3942;51.518;6.912;2022-08-14T21:11:40;27.40;99.90
7796;DHT22;3942;51.518;6.912;2022-08-14T21:16:51;27.30;99.90
7796;DHT22;3942;51.518;6.912;2022-08-14T21:21:54;27.20;99.90
7796;DHT22;3942;51.518;6.912;2022-08-14T21:27:00;27.20;99.90
7796;DHT22;3942;51.518;6.912;2022-08-14T21:32:05;27.10;99.90
7796;DHT22;3942;51.518;6.912;2022-08-14T21:37:07;27.00;99.90
7796;DHT22;3942;51.518;6.912;2022-08-14T21:42:09;26.80;99.90
7796;DHT22;3942;51.518;6.912;2022-08-14T21:47:13;26.80;99.90
7796;DHT22;3942;51.518;6.912;2022-08-14T21:52:18;26.80;99.90
7796;DHT22;3942;51.518;6.912;2022-08-14T21:57:21;26.80;99.90
7796;DHT22;3942;51.518;6.912;2022-08-14T22:02:26;26.80;99.90
7796;DHT22;3942;51.518;6.912;2022-08-14T22:07:28;26.80;99.90
7796;DHT22;3942;51.518;6.912;2022-08-14T22:12:30;26.80;99.90
7796;DHT22;3942;51.518;6.912;2022-08-14T22:17:33;26.70;99.90
7796;DHT22;3942;51.518;6.912;2022-08-14T22:22:36;26.70;99.90
7796;DHT22;3942;51.518;6.912;2022-08-14T22:27:40;26.70;99.90
7796;DHT22;3942;51.518;6.912;2022-08-14T22:32:45;26.60;99.90
7796;DHT22;3942;51.518;6.912;2022-08-14T22:37:48;26.40;99.90
7796;DHT22;3942;51.518;6.912;2022-08-14T22:42:49;26.20;99.90
7796;DHT22;3942;51.518;6.912;2022-08-14T22:47:53;26.20;99.90
7796;DHT22;3942;51.518;6.912;2022-08-14T22:52:55;26.10;99.90
7796;DHT22;3942;51.518;6.912;2022-08-14T22:57:58;26.10;99.90
7796;DHT22;3942;51.518;6.912;2022-08-14T23:03:09;26.10;99.90
7796;DHT22;3942;51.518;6.912;2022-08-14T23:08:13;26.10;99.90
7796;DHT22;3942;51.518;6.912;2022-08-14T23:13:15;26.00;99.90
7796;DHT22;3942;51.518;6.912;2022-08-14T23:18:18;26.00;99.90
7796;DHT22;3942;51.518;6.912;2022-08-14T23:23:25;25.90;99.90
7796;DHT22;3942;51.518;6.912;2022-08-14T23:28:27;25.80;99.90
7796;DHT22;3942;51.518;6.912;2022-08-14T23:33:32;25.70;99.90
7796;DHT22;3942;51.518;6.912;2022-08-14T23:38:34;25.50;99.90
7796;DHT22;3942;51.518;6.912;2022-08-14T23:43:37;25.40;99.90
7796;DHT22;3942;51.518;6.912;2022-08-14T23:48:45;25.30;99.90
7796;DHT22;3942;51.518;6.912;2022-08-14T23:53:48;25.30;99.90
7796;DHT22;3942;51.518;6.912;2022-08-14T23:58:51;25.30;99.90
